sensor_id;sensor_type;location;lat;lon;timestamp;temperature;humidity
1956;DHT22;978;48.314;11.562;2022-12-13T00:00:21;20.80;62.50
1956;DHT22;978;48.314;11.562;2022-12-13T00:02:48;20.80;62.50
1956;DHT22;978;48.314;11.562;2022-12-13T00:05:16;20.70;62.50
1956;DHT22;978;48.314;11.562;2022-12-13T00:07:42;20.70;62.50
1956;DHT22;978;48.314;11.562;2022-12-13T00:10:10;20.70;62.50
1956;DHT22;978;48.314;11.562;2022-12-13T00:12:37;20.80;62.50
1956;DHT22;978;48.314;11.562;2022-12-13T00:15:04;20.70;62.50
1956;DHT22;978;48.314;11.562;2022-12-13T00:17:32;20.80;62.60
1956;DHT22;978;48.314;11.562;2022-12-13T00:19:59;20.80;62.50
1956;DHT22;978;48.314;11.562;2022-12-13T00:22:26;20.70;62.50
1956;DHT22;978;48.314;11.562;2022-12-13T00:24:53;20.80;62.50
1956;DHT22;978;48.314;11.562;2022-12-13T00:27:22;20.70;62.50
1956;DHT22;978;48.314;11.562;2022-12-13T00:29:49;20.80;62.50
1956;DHT22;978;48.314;11.562;2022-12-13T00:32:16;20.70;62.50
1956;DHT22;978;48.314;11.562;2022-12-13T00:34:43;20.70;62.50
1956;DHT22;978;48.314;11.562;2022-12-13T00:37:10;20.70;62.50
1956;DHT22;978;48.314;11.562;2022-12-13T00:39:36;20.80;62.50
1956;DHT22;978;48.314;11.562;2022-12-13T00:42:04;20.70;62.50
1956;DHT22;978;48.314;11.562;2022-12-13T00:44:32;20.80;62.50
1956;DHT22;978;48.314;11.562;2022-12-13T00:46:59;20.70;62.50
1956;DHT22;978;48.314;11.562;2022-12-13T00:49:25;20.80;62.60
1956;DHT22;978;48.314;11.562;2022-12-13T00:51:52;20.80;62.60
1956;DHT22;978;48.314;11.562;2022-12-13T00:54:19;20.70;62.50
1956;DHT22;978;48.314;11.562;2022-12-13T00:56:45;20.70;62.50
1956;DHT22;978;48.314;11.562;2022-12-13T00:59:13;20.80;62.60
1956;DHT22;978;48.314;11.562;2022-12-13T01:01:41;20.80;62.60
1956;DHT22;978;48.314;11.562;2022-12-13T01:04:09;20.80;62.60
1956;DHT22;978;48.314;11.562;2022-12-13T01:06:38;20.70;62.50
1956;DHT22;978;48.314;11.562;2022-12-13T01:09:09;20.70;62.50
1956;DHT22;978;48.314;11.562;2022-12-13T01:11:37;20.70;62.50
1956;DHT22;978;48.314;11.562;2022-12-13T01:14:04;20.70;63.10
1956;DHT22;978;48.314;11.562;2022-12-13T01:16:31;20.70;62.50
1956;DHT22;978;48.314;11.562;2022-12-13T01:18:59;20.70;62.50
1956;DHT22;978;48.314;11.562;2022-12-13T01:21:26;20.70;62.50
1956;DHT22;978;48.314;11.562;2022-12-13T01:23:52;20.80;62.60
1956;DHT22;978;48.314;11.562;2022-12-13T01:26:21;20.70;62.50
1956;DHT22;978;48.314;11.562;2022-12-13T01:28:48;20.80;62.60
1956;DHT22;978;48.314;11.562;2022-12-13T01:31:17;20.70;62.50
1956;DHT22;978;48.314;11.562;2022-12-13T01:33:46;20.70;62.50
1956;DHT22;978;48.314;11.562;2022-12-13T01:36:16;20.80;62.60
1956;DHT22;978;48.314;11.562;2022-12-13T01:38:43;20.70;62.50
1956;DHT22;978;48.314;11.562;2022-12-13T01:41:12;20.70;62.50
1956;DHT22;978;48.314;11.562;2022-12-13T01:43:55;20.80;62.60
1956;DHT22;978;48.314;11.562;2022-12-13T01:46:22;20.70;62.50
1956;DHT22;978;48.314;11.562;2022-12-13T01:48:53;20.70;62.50
1956;DHT22;978;48.314;11.562;2022-12-13T01:51:26;20.70;62.60
1956;DHT22;978;48.314;11.562;2022-12-13T01:53:58;20.80;62.60
1956;DHT22;978;48.314;11.562;2022-12-13T01:56:29;20.80;62.60
1956;DHT22;978;48.314;11.562;2022-12-13T01:58:58;20.70;62.50
1956;DHT22;978;48.314;11.562;2022-12-13T02:01:26;20.70;62.50
1956;DHT22;978;48.314;11.562;2022-12-13T02:03:53;20.80;62.60
1956;DHT22;978;48.314;11.562;2022-12-13T02:06:27;20.70;62.50
1956;DHT22;978;48.314;11.562;2022-12-13T02:08:55;20.80;62.60
1956;DHT22;978;48.314;11.562;2022-12-13T02:11:23;20.70;62.50
1956;DHT22;978;48.314;11.562;2022-12-13T02:13:50;20.70;62.50
1956;DHT22;978;48.314;11.562;2022-12-13T02:16:26;20.70;62.50
1956;DHT22;978;48.314;11.562;2022-12-13T02:21:59;20.70;62.50
1956;DHT22;978;48.314;11.562;2022-12-13T02:28:00;20.80;62.60
1956;DHT22;978;48.314;11.562;2022-12-13T02:30:34;20.70;62.50
1956;DHT22;978;48.314;11.562;2022-12-13T02:33:11;20.70;62.50
1956;DHT22;978;48.314;11.562;2022-12-13T02:35:45;20.70;62.50
1956;DHT22;978;48.314;11.562;2022-12-13T02:38:23;20.70;62.60
1956;DHT22;978;48.314;11.562;2022-12-13T02:40:54;20.70;62.50
1956;DHT22;978;48.314;11.562;2022-12-13T02:43:25;20.70;62.50
1956;DHT22;978;48.314;11.562;2022-12-13T02:45:58;20.80;62.50
1956;DHT22;978;48.314;11.562;2022-12-13T02:48:28;20.70;62.50
1956;DHT22;978;48.314;11.562;2022-12-13T02:50:55;20.70;62.50
1956;DHT22;978;48.314;11.562;2022-12-13T02:53:24;20.70;62.50
1956;DHT22;978;48.314;11.562;2022-12-13T02:55:52;20.80;62.50
1956;DHT22;978;48.314;11.562;2022-12-13T02:58:22;20.80;62.60
1956;DHT22;978;48.314;11.562;2022-12-13T03:00:54;20.70;62.50
1956;DHT22;978;48.314;11.562;2022-12-13T03:03:33;20.70;62.50
1956;DHT22;978;48.314;11.562;2022-12-13T03:06:13;20.80;62.60
1956;DHT22;978;48.314;11.562;2022-12-13T03:09:02;20.70;62.50
1956;DHT22;978;48.314;11.562;2022-12-13T03:11:43;20.70;62.50
1956;DHT22;978;48.314;11.562;2022-12-13T03:14:32;20.70;62.50
1956;DHT22;978;48.314;11.562;2022-12-13T03:17:03;20.80;62.60
1956;DHT22;978;48.314;11.562;2022-12-13T03:19:33;20.80;62.60
1956;DHT22;978;48.314;11.562;2022-12-13T03:21:59;20.80;62.50
1956;DHT22;978;48.314;11.562;2022-12-13T03:24:30;20.80;62.50
1956;DHT22;978;48.314;11.562;2022-12-13T03:26:57;20.80;62.60
1956;DHT22;978;48.314;11.562;2022-12-13T03:29:24;20.70;62.50
1956;DHT22;978;48.314;11.562;2022-12-13T03:31:51;20.70;62.50
1956;DHT22;978;48.314;11.562;2022-12-13T03:34:18;20.70;62.50
1956;DHT22;978;48.314;11.562;2022-12-13T03:36:46;20.70;62.50
1956;DHT22;978;48.314;11.562;2022-12-13T03:39:12;20.70;62.50
1956;DHT22;978;48.314;11.562;2022-12-13T03:41:39;20.70;62.40
1956;DHT22;978;48.314;11.562;2022-12-13T03:44:07;20.80;62.50
1956;DHT22;978;48.314;11.562;2022-12-13T03:46:34;20.80;62.60
1956;DHT22;978;48.314;11.562;2022-12-13T03:49:01;20.80;62.50
1956;DHT22;978;48.314;11.562;2022-12-13T03:51:27;20.80;62.60
1956;DHT22;978;48.314;11.562;2022-12-13T03:53:55;20.70;62.50
1956;DHT22;978;48.314;11.562;2022-12-13T03:56:22;20.70;62.60
1956;DHT22;978;48.314;11.562;2022-12-13T03:58:49;20.80;62.60
1956;DHT22;978;48.314;11.562;2022-12-13T04:01:16;20.70;62.60
1956;DHT22;978;48.314;11.562;2022-12-13T04:03:45;20.80;62.70
1956;DHT22;978;48.314;11.562;2022-12-13T04:06:13;20.80;62.70
1956;DHT22;978;48.314;11.562;2022-12-13T04:08:39;20.80;62.80
1956;DHT22;978;48.314;11.562;2022-12-13T04:11:07;20.80;62.80
1956;DHT22;978;48.314;11.562;2022-12-13T04:13:52;20.70;62.70
1956;DHT22;978;48.314;11.562;2022-12-13T04:16:19;20.70;62.70
1956;DHT22;978;48.314;11.562;2022-12-13T04:18:46;20.70;62.70
1956;DHT22;978;48.314;11.562;2022-12-13T04:21:12;20.80;62.80
1956;DHT22;978;48.314;11.562;2022-12-13T04:23:39;20.70;62.70
1956;DHT22;978;48.314;11.562;2022-12-13T04:26:07;20.70;62.70
1956;DHT22;978;48.314;11.562;2022-12-13T04:28:34;20.80;62.80
1956;DHT22;978;48.314;11.562;2022-12-13T04:31:01;20.80;62.80
1956;DHT22;978;48.314;11.562;2022-12-13T04:33:28;20.70;62.70
1956;DHT22;978;48.314;11.562;2022-12-13T04:35:57;20.70;62.70
1956;DHT22;978;48.314;11.562;2022-12-13T04:38:24;20.70;62.70
1956;DHT22;978;48.314;11.562;2022-12-13T04:40:50;20.70;62.70
1956;DHT22;978;48.314;11.562;2022-12-13T04:43:18;20.70;62.70
1956;DHT22;978;48.314;11.562;2022-12-13T04:45:45;20.70;62.70
1956;DHT22;978;48.314;11.562;2022-12-13T04:48:12;20.80;62.80
1956;DHT22;978;48.314;11.562;2022-12-13T04:50:39;20.80;62.80
1956;DHT22;978;48.314;11.562;2022-12-13T04:53:05;20.70;62.70
1956;DHT22;978;48.314;11.562;2022-12-13T04:55:32;20.80;62.70
1956;DHT22;978;48.314;11.562;2022-12-13T04:57:59;20.70;62.70
1956;DHT22;978;48.314;11.562;2022-12-13T05:00:27;20.70;62.70
1956;DHT22;978;48.314;11.562;2022-12-13T05:02:54;20.80;62.70
1956;DHT22;978;48.314;11.562;2022-12-13T05:05:20;20.70;62.70
1956;DHT22;978;48.314;11.562;2022-12-13T05:07:47;20.80;62.70
1956;DHT22;978;48.314;11.562;2022-12-13T05:10:14;20.70;62.60
1956;DHT22;978;48.314;11.562;2022-12-13T05:12:41;20.80;62.70
1956;DHT22;978;48.314;11.562;2022-12-13T05:15:08;20.70;62.60
1956;DHT22;978;48.314;11.562;2022-12-13T05:17:36;20.80;62.60
1956;DHT22;978;48.314;11.562;2022-12-13T05:20:04;20.70;62.70
1956;DHT22;978;48.314;11.562;2022-12-13T05:22:30;20.70;62.70
1956;DHT22;978;48.314;11.562;2022-12-13T05:24:57;20.70;62.40
1956;DHT22;978;48.314;11.562;2022-12-13T05:27:24;20.70;62.40
1956;DHT22;978;48.314;11.562;2022-12-13T05:29:51;20.80;62.50
1956;DHT22;978;48.314;11.562;2022-12-13T05:32:17;20.70;62.30
1956;DHT22;978;48.314;11.562;2022-12-13T05:34:45;20.70;62.20
1956;DHT22;978;48.314;11.562;2022-12-13T05:37:12;20.70;62.10
1956;DHT22;978;48.314;11.562;2022-12-13T05:39:39;20.70;62.60
1956;DHT22;978;48.314;11.562;2022-12-13T05:42:06;20.80;62.00
1956;DHT22;978;48.314;11.562;2022-12-13T05:44:32;20.70;61.80
1956;DHT22;978;48.314;11.562;2022-12-13T05:46:59;20.80;61.90
1956;DHT22;978;48.314;11.562;2022-12-13T05:49:26;20.70;61.70
1956;DHT22;978;48.314;11.562;2022-12-13T05:51:54;20.80;61.70
1956;DHT22;978;48.314;11.562;2022-12-13T05:54:21;20.70;61.50
1956;DHT22;978;48.314;11.562;2022-12-13T05:56:48;20.80;61.60
1956;DHT22;978;48.314;11.562;2022-12-13T05:59:14;20.80;61.50
1956;DHT22;978;48.314;11.562;2022-12-13T06:01:41;20.70;61.30
1956;DHT22;978;48.314;11.562;2022-12-13T06:04:08;20.70;61.30
1956;DHT22;978;48.314;11.562;2022-12-13T06:06:34;20.70;61.20
1956;DHT22;978;48.314;11.562;2022-12-13T06:09:03;20.70;61.20
1956;DHT22;978;48.314;11.562;2022-12-13T06:11:30;20.70;61.10
1956;DHT22;978;48.314;11.562;2022-12-13T06:13:56;20.70;61.10
1956;DHT22;978;48.314;11.562;2022-12-13T06:16:23;20.70;61.10
1956;DHT22;978;48.314;11.562;2022-12-13T06:18:51;20.70;61.00
1956;DHT22;978;48.314;11.562;2022-12-13T06:21:18;20.70;61.00
1956;DHT22;978;48.314;11.562;2022-12-13T06:23:44;20.70;61.00
1956;DHT22;978;48.314;11.562;2022-12-13T06:26:12;20.80;61.00
1956;DHT22;978;48.314;11.562;2022-12-13T06:28:39;20.70;60.90
1956;DHT22;978;48.314;11.562;2022-12-13T06:31:06;20.70;60.80
1956;DHT22;978;48.314;11.562;2022-12-13T06:33:33;20.70;60.70
1956;DHT22;978;48.314;11.562;2022-12-13T06:36:01;20.70;60.70
1956;DHT22;978;48.314;11.562;2022-12-13T06:38:28;20.70;60.70
1956;DHT22;978;48.314;11.562;2022-12-13T06:41:05;20.70;60.60
1956;DHT22;978;48.314;11.562;2022-12-13T06:43:33;20.80;60.70
1956;DHT22;978;48.314;11.562;2022-12-13T06:46:02;20.70;60.60
1956;DHT22;978;48.314;11.562;2022-12-13T06:48:29;20.70;60.50
1956;DHT22;978;48.314;11.562;2022-12-13T06:50:59;20.70;60.50
1956;DHT22;978;48.314;11.562;2022-12-13T06:53:26;20.70;60.50
1956;DHT22;978;48.314;11.562;2022-12-13T06:55:52;20.70;60.50
1956;DHT22;978;48.314;11.562;2022-12-13T06:58:19;20.70;60.40
1956;DHT22;978;48.314;11.562;2022-12-13T07:00:47;20.70;60.40
1956;DHT22;978;48.314;11.562;2022-12-13T07:03:14;20.70;60.40
1956;DHT22;978;48.314;11.562;2022-12-13T07:05:41;20.70;60.40
1956;DHT22;978;48.314;11.562;2022-12-13T07:08:08;20.70;60.40
1956;DHT22;978;48.314;11.562;2022-12-13T07:10:37;20.70;60.30
1956;DHT22;978;48.314;11.562;2022-12-13T07:13:05;20.70;60.30
1956;DHT22;978;48.314;11.562;2022-12-13T07:15:32;20.70;60.20
1956;DHT22;978;48.314;11.562;2022-12-13T07:18:00;20.70;60.20
1956;DHT22;978;48.314;11.562;2022-12-13T07:20:27;20.70;60.20
1956;DHT22;978;48.314;11.562;2022-12-13T07:22:54;20.70;60.20
1956;DHT22;978;48.314;11.562;2022-12-13T07:25:21;20.70;60.10
1956;DHT22;978;48.314;11.562;2022-12-13T07:27:54;20.70;60.10
1956;DHT22;978;48.314;11.562;2022-12-13T07:30:21;20.70;60.00
1956;DHT22;978;48.314;11.562;2022-12-13T07:32:48;20.70;60.00
1956;DHT22;978;48.314;11.562;2022-12-13T07:35:16;20.70;60.10
1956;DHT22;978;48.314;11.562;2022-12-13T07:37:43;20.70;60.10
1956;DHT22;978;48.314;11.562;2022-12-13T07:40:10;20.70;60.10
1956;DHT22;978;48.314;11.562;2022-12-13T07:42:37;20.70;60.10
1956;DHT22;978;48.314;11.562;2022-12-13T07:45:04;20.70;60.20
1956;DHT22;978;48.314;11.562;2022-12-13T07:47:31;20.70;60.10
1956;DHT22;978;48.314;11.562;2022-12-13T07:49:58;20.70;60.00
1956;DHT22;978;48.314;11.562;2022-12-13T07:52:26;20.70;59.90
1956;DHT22;978;48.314;11.562;2022-12-13T07:54:53;20.70;59.80
1956;DHT22;978;48.314;11.562;2022-12-13T07:57:20;20.80;59.70
1956;DHT22;978;48.314;11.562;2022-12-13T07:59:46;20.70;59.70
1956;DHT22;978;48.314;11.562;2022-12-13T08:02:13;20.80;59.80
1956;DHT22;978;48.314;11.562;2022-12-13T08:04:41;20.80;59.70
1956;DHT22;978;48.314;11.562;2022-12-13T08:07:09;20.80;60.40
1956;DHT22;978;48.314;11.562;2022-12-13T08:09:37;20.70;59.80
1956;DHT22;978;48.314;11.562;2022-12-13T08:12:04;20.70;60.00
1956;DHT22;978;48.314;11.562;2022-12-13T08:14:31;20.70;59.90
1956;DHT22;978;48.314;11.562;2022-12-13T08:16:58;20.80;60.00
1956;DHT22;978;48.314;11.562;2022-12-13T08:19:25;20.70;59.90
1956;DHT22;978;48.314;11.562;2022-12-13T08:21:52;20.70;60.00
1956;DHT22;978;48.314;11.562;2022-12-13T08:24:20;20.70;59.90
1956;DHT22;978;48.314;11.562;2022-12-13T08:26:48;20.70;59.80
1956;DHT22;978;48.314;11.562;2022-12-13T08:29:15;20.80;59.90
1956;DHT22;978;48.314;11.562;2022-12-13T08:31:41;20.70;59.80
1956;DHT22;978;48.314;11.562;2022-12-13T08:34:08;20.70;59.80
1956;DHT22;978;48.314;11.562;2022-12-13T08:36:35;20.80;59.90
1956;DHT22;978;48.314;11.562;2022-12-13T08:39:01;20.80;59.80
1956;DHT22;978;48.314;11.562;2022-12-13T08:41:29;20.80;59.80
1956;DHT22;978;48.314;11.562;2022-12-13T08:43:57;20.70;59.80
1956;DHT22;978;48.314;11.562;2022-12-13T08:46:24;20.70;59.70
1956;DHT22;978;48.314;11.562;2022-12-13T08:48:52;20.70;59.70
1956;DHT22;978;48.314;11.562;2022-12-13T08:51:19;20.80;59.80
1956;DHT22;978;48.314;11.562;2022-12-13T08:53:48;20.70;59.60
1956;DHT22;978;48.314;11.562;2022-12-13T08:56:15;20.70;59.60
1956;DHT22;978;48.314;11.562;2022-12-13T08:58:43;20.70;59.60
1956;DHT22;978;48.314;11.562;2022-12-13T09:01:11;20.80;59.60
1956;DHT22;978;48.314;11.562;2022-12-13T09:03:38;20.70;59.60
1956;DHT22;978;48.314;11.562;2022-12-13T09:06:06;20.70;59.50
1956;DHT22;978;48.314;11.562;2022-12-13T09:08:33;20.70;59.50
1956;DHT22;978;48.314;11.562;2022-12-13T09:11:01;20.80;59.60
1956;DHT22;978;48.314;11.562;2022-12-13T09:13:28;20.70;59.40
1956;DHT22;978;48.314;11.562;2022-12-13T09:15:56;20.80;59.50
1956;DHT22;978;48.314;11.562;2022-12-13T09:18:24;20.70;59.50
1956;DHT22;978;48.314;11.562;2022-12-13T09:20:51;20.80;59.60
1956;DHT22;978;48.314;11.562;2022-12-13T09:23:18;20.80;59.60
1956;DHT22;978;48.314;11.562;2022-12-13T09:25:45;20.70;59.50
1956;DHT22;978;48.314;11.562;2022-12-13T09:28:18;20.70;60.00
1956;DHT22;978;48.314;11.562;2022-12-13T09:30:44;20.70;59.40
1956;DHT22;978;48.314;11.562;2022-12-13T09:33:11;20.70;59.40
1956;DHT22;978;48.314;11.562;2022-12-13T09:35:39;20.70;59.30
1956;DHT22;978;48.314;11.562;2022-12-13T09:38:06;20.70;59.30
1956;DHT22;978;48.314;11.562;2022-12-13T09:40:33;20.70;59.20
1956;DHT22;978;48.314;11.562;2022-12-13T09:43:03;20.70;59.20
1956;DHT22;978;48.314;11.562;2022-12-13T09:45:31;20.70;59.20
1956;DHT22;978;48.314;11.562;2022-12-13T09:48:00;20.70;59.20
1956;DHT22;978;48.314;11.562;2022-12-13T09:50:29;20.70;59.10
1956;DHT22;978;48.314;11.562;2022-12-13T09:52:59;20.70;59.10
1956;DHT22;978;48.314;11.562;2022-12-13T09:55:29;20.70;59.00
1956;DHT22;978;48.314;11.562;2022-12-13T09:57:58;20.70;59.00
1956;DHT22;978;48.314;11.562;2022-12-13T10:00:33;20.70;59.00
1956;DHT22;978;48.314;11.562;2022-12-13T10:03:00;20.70;59.10
1956;DHT22;978;48.314;11.562;2022-12-13T10:05:31;20.70;59.00
1956;DHT22;978;48.314;11.562;2022-12-13T10:08:05;20.70;59.00
1956;DHT22;978;48.314;11.562;2022-12-13T10:10:33;20.70;59.00
1956;DHT22;978;48.314;11.562;2022-12-13T10:13:08;20.70;59.00
1956;DHT22;978;48.314;11.562;2022-12-13T10:15:38;20.70;58.90
1956;DHT22;978;48.314;11.562;2022-12-13T10:18:09;20.70;58.90
1956;DHT22;978;48.314;11.562;2022-12-13T10:20:38;20.70;58.90
1956;DHT22;978;48.314;11.562;2022-12-13T10:23:08;20.70;58.80
1956;DHT22;978;48.314;11.562;2022-12-13T10:25:46;20.70;58.80
1956;DHT22;978;48.314;11.562;2022-12-13T10:28:16;20.70;58.80
1956;DHT22;978;48.314;11.562;2022-12-13T10:30:43;20.70;58.90
1956;DHT22;978;48.314;11.562;2022-12-13T10:33:20;20.70;59.10
1956;DHT22;978;48.314;11.562;2022-12-13T10:36:05;20.70;58.80
1956;DHT22;978;48.314;11.562;2022-12-13T10:38:36;20.70;59.10
1956;DHT22;978;48.314;11.562;2022-12-13T10:41:32;20.80;58.90
1956;DHT22;978;48.314;11.562;2022-12-13T10:44:17;20.80;59.50
1956;DHT22;978;48.314;11.562;2022-12-13T10:46:53;20.70;59.50
1956;DHT22;978;48.314;11.562;2022-12-13T10:49:28;20.70;59.40
1956;DHT22;978;48.314;11.562;2022-12-13T10:51:57;20.70;59.90
1956;DHT22;978;48.314;11.562;2022-12-13T10:54:27;20.80;59.10
1956;DHT22;978;48.314;11.562;2022-12-13T10:56:56;20.80;59.20
1956;DHT22;978;48.314;11.562;2022-12-13T10:59:30;20.70;59.00
1956;DHT22;978;48.314;11.562;2022-12-13T11:01:58;20.70;59.00
1956;DHT22;978;48.314;11.562;2022-12-13T11:04:27;20.70;59.00
1956;DHT22;978;48.314;11.562;2022-12-13T11:06:55;20.70;58.90
1956;DHT22;978;48.314;11.562;2022-12-13T11:09:30;20.70;58.90
1956;DHT22;978;48.314;11.562;2022-12-13T11:12:00;20.70;58.80
1956;DHT22;978;48.314;11.562;2022-12-13T11:14:30;20.70;58.90
1956;DHT22;978;48.314;11.562;2022-12-13T11:17:04;20.70;58.80
1956;DHT22;978;48.314;11.562;2022-12-13T11:19:36;20.70;58.70
1956;DHT22;978;48.314;11.562;2022-12-13T11:22:04;20.70;58.70
1956;DHT22;978;48.314;11.562;2022-12-13T11:24:34;20.70;58.70
1956;DHT22;978;48.314;11.562;2022-12-13T11:27:24;20.70;58.60
1956;DHT22;978;48.314;11.562;2022-12-13T11:30:04;20.70;58.60
1956;DHT22;978;48.314;11.562;2022-12-13T11:32:45;20.70;58.50
1956;DHT22;978;48.314;11.562;2022-12-13T11:35:20;20.70;58.50
1956;DHT22;978;48.314;11.562;2022-12-13T11:37:55;20.70;58.40
1956;DHT22;978;48.314;11.562;2022-12-13T11:40:26;20.70;58.40
1956;DHT22;978;48.314;11.562;2022-12-13T11:42:59;20.70;58.40
1956;DHT22;978;48.314;11.562;2022-12-13T11:45:30;20.70;58.30
1956;DHT22;978;48.314;11.562;2022-12-13T11:48:04;20.70;58.30
1956;DHT22;978;48.314;11.562;2022-12-13T11:50:36;20.70;58.40
1956;DHT22;978;48.314;11.562;2022-12-13T11:53:19;20.70;58.20
1956;DHT22;978;48.314;11.562;2022-12-13T11:55:51;20.70;58.20
1956;DHT22;978;48.314;11.562;2022-12-13T11:58:26;20.70;58.20
1956;DHT22;978;48.314;11.562;2022-12-13T12:01:01;20.70;58.20
1956;DHT22;978;48.314;11.562;2022-12-13T12:03:35;20.70;58.10
1956;DHT22;978;48.314;11.562;2022-12-13T12:06:08;20.70;58.10
1956;DHT22;978;48.314;11.562;2022-12-13T12:08:41;20.70;58.10
1956;DHT22;978;48.314;11.562;2022-12-13T12:11:15;20.70;58.10
1956;DHT22;978;48.314;11.562;2022-12-13T12:13:49;20.70;58.00
1956;DHT22;978;48.314;11.562;2022-12-13T12:16:24;20.70;58.00
1956;DHT22;978;48.314;11.562;2022-12-13T12:18:52;20.70;58.00
1956;DHT22;978;48.314;11.562;2022-12-13T12:21:28;20.70;57.90
1956;DHT22;978;48.314;11.562;2022-12-13T12:24:07;20.70;57.90
1956;DHT22;978;48.314;11.562;2022-12-13T12:26:41;20.70;57.90
1956;DHT22;978;48.314;11.562;2022-12-13T12:29:43;20.70;57.90
1956;DHT22;978;48.314;11.562;2022-12-13T12:32:23;20.70;57.90
1956;DHT22;978;48.314;11.562;2022-12-13T12:35:00;20.70;57.90
1956;DHT22;978;48.314;11.562;2022-12-13T12:37:39;20.70;57.90
1956;DHT22;978;48.314;11.562;2022-12-13T12:40:43;20.70;57.90
1956;DHT22;978;48.314;11.562;2022-12-13T12:43:19;20.70;57.90
1956;DHT22;978;48.314;11.562;2022-12-13T12:45:58;20.70;58.00
1956;DHT22;978;48.314;11.562;2022-12-13T12:48:54;20.70;57.90
1956;DHT22;978;48.314;11.562;2022-12-13T12:51:26;20.60;57.90
1956;DHT22;978;48.314;11.562;2022-12-13T12:54:07;20.60;57.90
1956;DHT22;978;48.314;11.562;2022-12-13T12:56:41;20.60;57.90
1956;DHT22;978;48.314;11.562;2022-12-13T12:59:17;20.60;57.90
1956;DHT22;978;48.314;11.562;2022-12-13T13:01:53;20.70;57.90
1956;DHT22;978;48.314;11.562;2022-12-13T13:04:26;20.70;57.90
1956;DHT22;978;48.314;11.562;2022-12-13T13:06:58;20.60;57.90
1956;DHT22;978;48.314;11.562;2022-12-13T13:09:26;20.70;58.00
1956;DHT22;978;48.314;11.562;2022-12-13T13:11:54;20.70;58.00
1956;DHT22;978;48.314;11.562;2022-12-13T13:14:29;20.60;57.90
1956;DHT22;978;48.314;11.562;2022-12-13T13:16:58;20.70;58.00
1956;DHT22;978;48.314;11.562;2022-12-13T13:19:40;20.60;58.00
1956;DHT22;978;48.314;11.562;2022-12-13T13:22:26;20.60;57.90
1956;DHT22;978;48.314;11.562;2022-12-13T13:25:00;20.70;58.00
1956;DHT22;978;48.314;11.562;2022-12-13T13:27:40;20.70;58.00
1956;DHT22;978;48.314;11.562;2022-12-13T13:30:15;20.70;57.90
1956;DHT22;978;48.314;11.562;2022-12-13T13:32:44;20.60;57.90
1956;DHT22;978;48.314;11.562;2022-12-13T13:38:51;20.60;58.00
1956;DHT22;978;48.314;11.562;2022-12-13T13:41:54;20.70;58.10
1956;DHT22;978;48.314;11.562;2022-12-13T13:44:33;20.60;58.10
1956;DHT22;978;48.314;11.562;2022-12-13T13:47:10;20.60;58.10
1956;DHT22;978;48.314;11.562;2022-12-13T13:49:42;20.60;58.10
1956;DHT22;978;48.314;11.562;2022-12-13T13:52:17;20.60;58.10
1956;DHT22;978;48.314;11.562;2022-12-13T13:58:14;20.70;58.10
1956;DHT22;978;48.314;11.562;2022-12-13T14:00:57;20.70;58.10
1956;DHT22;978;48.314;11.562;2022-12-13T14:09:42;20.60;58.10
1956;DHT22;978;48.314;11.562;2022-12-13T14:12:44;20.70;58.10
1956;DHT22;978;48.314;11.562;2022-12-13T14:18:52;20.70;58.10
1956;DHT22;978;48.314;11.562;2022-12-13T14:21:30;20.70;58.20
1956;DHT22;978;48.314;11.562;2022-12-13T14:24:13;20.60;58.10
1956;DHT22;978;48.314;11.562;2022-12-13T14:26:59;20.60;58.20
1956;DHT22;978;48.314;11.562;2022-12-13T14:29:30;20.70;58.30
1956;DHT22;978;48.314;11.562;2022-12-13T14:31:58;20.70;58.30
1956;DHT22;978;48.314;11.562;2022-12-13T14:34:26;20.60;58.40
1956;DHT22;978;48.314;11.562;2022-12-13T14:36:55;20.60;58.50
1956;DHT22;978;48.314;11.562;2022-12-13T14:39:23;20.70;58.50
1956;DHT22;978;48.314;11.562;2022-12-13T14:41:52;20.70;58.50
1956;DHT22;978;48.314;11.562;2022-12-13T14:44:21;20.70;58.50
1956;DHT22;978;48.314;11.562;2022-12-13T14:46:50;20.70;58.80
1956;DHT22;978;48.314;11.562;2022-12-13T14:49:18;20.60;58.60
1956;DHT22;978;48.314;11.562;2022-12-13T14:51:46;20.60;58.20
1956;DHT22;978;48.314;11.562;2022-12-13T14:54:18;20.60;58.30
1956;DHT22;978;48.314;11.562;2022-12-13T14:56:55;20.70;58.60
1956;DHT22;978;48.314;11.562;2022-12-13T14:59:22;20.60;58.40
1956;DHT22;978;48.314;11.562;2022-12-13T15:01:54;20.70;58.50
1956;DHT22;978;48.314;11.562;2022-12-13T15:04:25;20.60;58.40
1956;DHT22;978;48.314;11.562;2022-12-13T15:06:57;20.70;58.40
1956;DHT22;978;48.314;11.562;2022-12-13T15:09:25;20.70;58.40
1956;DHT22;978;48.314;11.562;2022-12-13T15:11:54;20.60;58.40
1956;DHT22;978;48.314;11.562;2022-12-13T15:14:23;20.60;58.40
1956;DHT22;978;48.314;11.562;2022-12-13T15:16:52;20.70;58.40
1956;DHT22;978;48.314;11.562;2022-12-13T15:19:21;20.70;58.40
1956;DHT22;978;48.314;11.562;2022-12-13T15:21:56;20.70;58.40
1956;DHT22;978;48.314;11.562;2022-12-13T15:24:26;20.60;58.40
1956;DHT22;978;48.314;11.562;2022-12-13T15:26:56;20.70;58.40
1956;DHT22;978;48.314;11.562;2022-12-13T15:29:25;20.60;58.30
1956;DHT22;978;48.314;11.562;2022-12-13T15:31:53;20.60;58.30
1956;DHT22;978;48.314;11.562;2022-12-13T15:34:35;20.60;58.30
1956;DHT22;978;48.314;11.562;2022-12-13T15:37:04;20.70;58.40
1956;DHT22;978;48.314;11.562;2022-12-13T15:39:36;20.60;58.30
1956;DHT22;978;48.314;11.562;2022-12-13T15:42:11;20.60;58.30
1956;DHT22;978;48.314;11.562;2022-12-13T15:44:44;20.70;58.30
1956;DHT22;978;48.314;11.562;2022-12-13T15:47:14;20.60;58.30
1956;DHT22;978;48.314;11.562;2022-12-13T15:49:45;20.60;58.30
1956;DHT22;978;48.314;11.562;2022-12-13T15:52:31;20.60;58.30
1956;DHT22;978;48.314;11.562;2022-12-13T15:55:00;20.60;58.30
1956;DHT22;978;48.314;11.562;2022-12-13T15:57:30;20.60;58.30
1956;DHT22;978;48.314;11.562;2022-12-13T16:00:04;20.60;58.30
1956;DHT22;978;48.314;11.562;2022-12-13T16:02:32;20.70;58.20
1956;DHT22;978;48.314;11.562;2022-12-13T16:05:06;20.70;58.30
1956;DHT22;978;48.314;11.562;2022-12-13T16:07:34;20.70;58.30
1956;DHT22;978;48.314;11.562;2022-12-13T16:10:05;20.60;58.30
1956;DHT22;978;48.314;11.562;2022-12-13T16:12:36;20.70;58.30
1956;DHT22;978;48.314;11.562;2022-12-13T16:15:15;20.70;58.30
1956;DHT22;978;48.314;11.562;2022-12-13T16:17:42;20.60;58.30
1956;DHT22;978;48.314;11.562;2022-12-13T16:20:11;20.70;58.40
1956;DHT22;978;48.314;11.562;2022-12-13T16:22:39;20.60;58.30
1956;DHT22;978;48.314;11.562;2022-12-13T16:25:08;20.60;58.30
1956;DHT22;978;48.314;11.562;2022-12-13T16:27:38;20.60;58.30
1956;DHT22;978;48.314;11.562;2022-12-13T16:30:14;20.60;58.30
1956;DHT22;978;48.314;11.562;2022-12-13T16:32:46;20.70;58.40
1956;DHT22;978;48.314;11.562;2022-12-13T16:35:13;20.60;58.30
1956;DHT22;978;48.314;11.562;2022-12-13T16:37:40;20.70;58.30
1956;DHT22;978;48.314;11.562;2022-12-13T16:40:25;20.60;58.30
1956;DHT22;978;48.314;11.562;2022-12-13T16:43:00;20.60;58.30
1956;DHT22;978;48.314;11.562;2022-12-13T16:45:37;20.60;58.20